Kumler, Illinois
Current Conditions -  °F | °C
As of 8:50 PM on Thursday 27 Nov 2014 (Local Time) from KTIP Reporting Station
Broken Clouds Broken Clouds  
Wind Chill: 14°   Ceiling: 2400
Heat Index: 21°   Visibility: 10mi
Dew Point: 13°   Wind: 6mph
Humidity: 71%   Direction: 330°NNW
Pressure: 30.42"   Gusts: NA
Location:  40.3398°N, 88.5173°W
Report Text: KTIP 280250Z AUTO 33005KT 10SM BKN024 M06/M10 A3042 RMK AO2 T10601105
Loading
Personal Weather Stations






























Interactive Weather Map New forecast layout! Learn more

10-Day Weather Forecast

Advertisements
Track Severe Weather on mobile